Time;durP1;ratioP1;P1;durP2;ratioP2;P2;SDS_P1;SDS_P2;PMS_P1;PMS_P2;Temp;Humidity;BMP_temperature;BMP_pressure;BME280_temperature;BME280_humidity;BME280_pressure;Samples;Min_cycle;Max_cycle;Signal;HPM_P1;HPM_P2
2022/01/30 00:00:00;;;;;;;16.00;0.80;;;6.80;99.90;;;;;;5057054;28;20046;-76
2022/01/30 00:02:29;;;;;;;23.85;1.17;;;6.80;99.90;;;;;;5056628;28;20016;-76
2022/01/30 00:04:55;;;;;;;20.90;2.17;;;6.70;99.90;;;;;;5057094;28;20017;-75
2022/01/30 00:07:21;;;;;;;15.38;1.42;;;6.80;99.90;;;;;;5056647;28;20075;-76
2022/01/30 00:09:48;;;;;;;23.95;1.70;;;6.80;99.90;;;;;;5038663;28;20090;-76
2022/01/30 00:12:16;;;;;;;17.17;1.17;;;6.70;99.90;;;;;;5038611;28;20028;-75
2022/01/30 00:14:42;;;;;;;24.57;1.40;;;6.80;99.90;;;;;;5038761;28;20024;-75
2022/01/30 00:17:14;;;;;;;19.23;1.75;;;6.80;99.90;;;;;;5056468;28;20387;-75
2022/01/30 00:19:47;;;;;;;14.05;0.50;;;6.80;99.90;;;;;;5038564;28;20017;-75
2022/01/30 00:24:51;;;;;;;22.30;2.13;;;6.70;99.90;;;;;;5056463;28;20021;-75
2022/01/30 00:27:21;;;;;;;24.00;1.57;;;6.70;99.90;;;;;;5038589;28;20155;-75
2022/01/30 00:29:46;;;;;;;16.40;1.50;;;6.60;99.90;;;;;;5056218;28;20029;-75
2022/01/30 00:32:12;;;;;;;20.15;0.88;;;6.60;99.90;;;;;;5056273;28;20029;-75
2022/01/30 00:34:38;;;;;;;12.93;0.85;;;6.60;99.90;;;;;;5055822;28;20036;-75
2022/01/30 00:37:04;;;;;;;17.13;1.75;;;6.50;99.90;;;;;;5055966;28;20028;-76
2022/01/30 00:39:30;;;;;;;26.08;2.58;;;6.50;99.90;;;;;;5057122;28;20439;-76
2022/01/30 00:41:58;;;;;;;17.42;0.85;;;6.50;99.90;;;;;;5037955;28;20025;-76
2022/01/30 00:44:24;;;;;;;18.58;1.25;;;6.50;99.90;;;;;;5056100;28;20489;-76
2022/01/30 00:46:49;;;;;;;13.93;1.00;;;6.50;99.90;;;;;;5056447;28;20033;-76
2022/01/30 00:49:15;;;;;;;14.52;1.33;;;6.50;99.90;;;;;;5056268;28;20025;-76
2022/01/30 00:51:40;;;;;;;14.75;3.08;;;6.50;99.90;;;;;;5038092;28;20025;-76
2022/01/30 00:54:06;;;;;;;19.75;1.48;;;6.40;99.90;;;;;;5055970;28;20025;-77
2022/01/30 00:56:31;;;;;;;19.40;1.30;;;6.40;99.90;;;;;;5055748;28;20051;-77
2022/01/30 00:58:57;;;;;;;22.73;1.45;;;6.40;99.90;;;;;;5055988;28;20083;-77
2022/01/30 01:01:23;;;;;;;19.20;1.33;;;6.40;99.90;;;;;;5055628;28;20490;-76
2022/01/30 01:03:48;;;;;;;12.43;2.30;;;6.40;99.90;;;;;;5037969;28;20466;-75
2022/01/30 01:06:14;;;;;;;18.13;1.35;;;6.40;99.90;;;;;;5055921;28;20032;-75
2022/01/30 01:09:14;;;;;;;22.08;1.45;;;6.30;99.90;;;;;;5037629;28;20448;-75
2022/01/30 01:25:12;;;;;;;21.02;1.67;;;6.30;99.90;;;;;;5055531;28;20075;-74
2022/01/30 01:27:38;;;;;;;17.92;1.92;;;6.30;99.90;;;;;;5055110;28;20021;-74
2022/01/30 01:30:04;;;;;;;13.00;0.75;;;6.30;99.90;;;;;;5054967;28;20032;-75
2022/01/30 01:32:30;;;;;;;18.27;1.23;;;6.30;99.90;;;;;;5036909;28;20120;-75
2022/01/30 01:34:55;;;;;;;18.67;0.52;;;6.20;99.90;;;;;;5037046;28;20079;-75
2022/01/30 01:37:21;;;;;;;12.68;0.98;;;6.20;99.90;;;;;;5054921;28;20025;-75
2022/01/30 01:39:46;;;;;;;23.95;1.50;;;6.20;99.90;;;;;;5037300;28;20482;-75
2022/01/30 01:42:15;;;;;;;15.95;0.85;;;6.20;99.90;;;;;;5054754;28;20489;-75
2022/01/30 01:44:45;;;;;;;19.40;1.10;;;6.20;99.90;;;;;;5054976;28;20167;-75
2022/01/30 01:47:12;;;;;;;11.30;0.85;;;6.30;99.90;;;;;;5036837;28;20075;-77
2022/01/30 01:49:39;;;;;;;16.92;1.80;;;6.20;99.90;;;;;;5036921;28;20464;-78
2022/01/30 01:54:57;;;;;;;13.27;1.10;;;6.20;99.90;;;;;;5055455;28;20029;-78
2022/01/30 01:57:25;;;;;;;13.80;0.55;;;6.20;99.90;;;;;;5054637;28;20067;-78
2022/01/30 01:59:51;;;;;;;22.90;2.13;;;6.20;99.90;;;;;;5037043;28;20505;-77
2022/01/30 02:02:17;;;;;;;9.77;1.67;;;6.20;99.90;;;;;;5054805;28;20259;-78
2022/01/30 02:04:43;;;;;;;25.10;1.77;;;6.20;99.90;;;;;;5054757;28;20017;-79
2022/01/30 02:09:43;;;;;;;14.73;1.08;;;6.20;99.90;;;;;;5054801;28;20445;-78
2022/01/30 02:12:20;;;;;;;19.55;1.95;;;6.20;99.90;;;;;;5054552;28;20021;-78
2022/01/30 02:15:04;;;;;;;14.10;1.08;;;6.30;99.90;;;;;;5036574;28;20036;-78
2022/01/30 02:25:43;;;;;;;6.22;0.85;;;6.20;99.90;;;;;;5056447;28;20039;-79
2022/01/30 02:28:12;;;;;;;12.93;1.15;;;6.10;99.90;;;;;;5055174;28;20048;-78
2022/01/30 02:30:43;;;;;;;9.77;0.60;;;6.10;99.90;;;;;;5055822;28;20029;-79
2022/01/30 02:33:09;;;;;;;7.93;0.17;;;6.10;99.90;;;;;;5055052;28;20104;-78
2022/01/30 02:35:34;;;;;;;9.30;1.02;;;6.00;99.90;;;;;;5054809;28;20052;-78
2022/01/30 02:38:01;;;;;;;13.30;0.30;;;6.00;99.90;;;;;;5055315;28;20021;-78
2022/01/30 02:40:29;;;;;;;7.07;0.32;;;5.90;99.90;;;;;;5036973;28;20070;-78
2022/01/30 02:42:55;;;;;;;11.57;1.20;;;5.90;99.90;;;;;;5035897;28;20032;-78
2022/01/30 02:45:24;;;;;;;20.60;2.22;;;5.90;99.90;;;;;;5053790;28;20017;-78
2022/01/30 02:50:50;;;;;;;16.75;0.93;;;6.00;99.90;;;;;;5053953;28;19909;-78
2022/01/30 02:53:15;;;;;;;9.65;0.30;;;6.00;99.90;;;;;;5053521;28;20470;-77
2022/01/30 02:55:41;;;;;;;5.63;0.30;;;6.00;99.90;;;;;;5054099;28;20028;-78
2022/01/30 02:58:07;;;;;;;11.98;1.25;;;5.90;99.90;;;;;;5035701;28;20025;-78
2022/01/30 03:00:33;;;;;;;17.10;1.08;;;5.90;99.90;;;;;;5035636;28;20029;-78
2022/01/30 03:02:59;;;;;;;10.95;0.52;;;5.90;99.90;;;;;;5035516;28;20021;-78
2022/01/30 03:05:24;;;;;;;10.43;0.35;;;5.90;99.90;;;;;;5053635;28;20493;-78
2022/01/30 03:07:52;;;;;;;8.27;1.17;;;6.00;99.90;;;;;;5035716;28;20061;-77
2022/01/30 03:10:17;;;;;;;11.57;0.70;;;6.00;99.90;;;;;;5054027;28;20363;-78
2022/01/30 03:12:43;;;;;;;11.00;0.70;;;6.30;99.90;;;;;;5054041;28;20032;-77
2022/01/30 03:15:09;;;;;;;9.73;1.17;;;5.80;99.90;;;;;;5053749;28;20063;-78
2022/01/30 03:17:34;;;;;;;21.33;1.60;;;5.80;99.90;;;;;;5035891;28;20040;-78
2022/01/30 03:20:00;;;;;;;12.30;1.02;;;5.70;99.90;;;;;;5053613;28;20021;-78
2022/01/30 03:22:26;;;;;;;10.32;0.47;;;5.80;99.90;;;;;;5053487;28;20029;-78
2022/01/30 03:24:52;;;;;;;10.45;0.55;;;5.70;99.90;;;;;;5035739;28;20014;-78
2022/01/30 03:27:17;;;;;;;8.75;0.85;;;5.70;99.90;;;;;;5035692;28;20029;-78
2022/01/30 03:29:50;;;;;;;10.13;0.73;;;5.70;99.90;;;;;;5053319;28;20036;-78
2022/01/30 03:32:16;;;;;;;9.85;1.02;;;5.70;99.90;;;;;;5035609;28;20040;-78
2022/01/30 03:34:42;;;;;;;8.75;0.60;;;5.70;99.90;;;;;;5035437;28;20479;-77
2022/01/30 03:37:07;;;;;;;11.02;0.20;;;5.60;99.90;;;;;;5035554;28;20025;-77
2022/01/30 03:39:33;;;;;;;4.47;0.00;;;5.70;99.90;;;;;;5035788;28;20024;-77
2022/01/30 03:41:59;;;;;;;13.27;1.27;;;5.70;99.90;;;;;;5053695;28;20020;-76
2022/01/30 03:44:24;;;;;;;5.78;0.20;;;5.70;99.90;;;;;;5036079;28;20033;-76
2022/01/30 03:46:50;;;;;;;9.35;0.90;;;5.80;99.90;;;;;;5053112;28;20029;-76
2022/01/30 03:49:15;;;;;;;13.38;0.32;;;5.70;99.90;;;;;;5053284;28;20021;-76
2022/01/30 03:51:41;;;;;;;13.07;0.35;;;5.70;99.90;;;;;;5053410;28;20044;-77
2022/01/30 03:54:07;;;;;;;15.98;1.60;;;5.70;99.90;;;;;;5053347;28;20049;-76
2022/01/30 03:56:32;;;;;;;11.30;0.47;;;5.60;99.90;;;;;;5053115;28;20074;-76
2022/01/30 03:58:58;;;;;;;13.80;1.65;;;5.60;99.90;;;;;;5035332;28;20112;-76
2022/01/30 04:01:23;;;;;;;7.80;0.88;;;5.50;99.90;;;;;;5035175;28;20028;-77
2022/01/30 04:03:49;;;;;;;12.38;1.08;;;5.50;99.90;;;;;;5035291;28;20067;-77
2022/01/30 04:06:14;;;;;;;8.57;1.67;;;5.50;99.90;;;;;;5053084;28;20033;-77
2022/01/30 04:08:40;;;;;;;11.18;0.80;;;5.50;99.90;;;;;;5053195;28;20372;-77
2022/01/30 04:11:06;;;;;;;9.38;0.65;;;5.60;99.90;;;;;;5035535;28;20029;-77
2022/01/30 04:13:31;;;;;;;13.00;0.70;;;5.50;99.90;;;;;;5035325;28;20108;-77
2022/01/30 04:15:57;;;;;;;11.52;1.35;;;5.50;99.90;;;;;;5055099;28;20112;-77
2022/01/30 04:18:23;;;;;;;9.95;0.13;;;5.50;99.90;;;;;;5038899;28;20025;-77
2022/01/30 04:20:50;;;;;;;14.60;0.90;;;5.40;99.90;;;;;;5056625;28;20075;-78
2022/01/30 04:23:16;;;;;;;7.72;0.45;;;5.40;99.90;;;;;;5056613;28;20092;-78
2022/01/30 04:25:41;;;;;;;4.15;0.38;;;5.40;99.90;;;;;;5038860;28;20029;-78
2022/01/30 04:28:07;;;;;;;7.70;0.43;;;5.40;99.90;;;;;;5038909;28;20454;-78
2022/01/30 04:30:33;;;;;;;8.95;0.47;;;5.40;99.90;;;;;;5039042;28;20028;-78
2022/01/30 04:32:59;;;;;;;7.18;0.95;;;5.40;99.90;;;;;;5056470;28;20404;-78
2022/01/30 04:35:28;;;;;;;10.35;0.55;;;5.50;99.90;;;;;;5038524;28;20025;-78
2022/01/30 05:04:18;;;;;;;25.27;1.10;;;5.50;99.90;;;;;;5056322;28;20032;-77
2022/01/30 05:09:18;;;;;;;12.25;0.43;;;5.50;99.90;;;;;;5056186;28;20036;-77
2022/01/30 05:11:44;;;;;;;8.40;0.63;;;5.60;99.90;;;;;;5055901;28;20039;-77
2022/01/30 05:14:10;;;;;;;15.43;1.00;;;5.60;99.90;;;;;;5056236;28;20027;-76
2022/01/30 05:16:38;;;;;;;9.45;0.68;;;5.70;99.90;;;;;;5037663;28;20021;-76
2022/01/30 05:19:04;;;;;;;12.90;0.63;;;5.80;99.90;;;;;;5037928;28;20525;-76
2022/01/30 05:21:29;;;;;;;8.57;0.98;;;5.80;99.90;;;;;;5055566;28;20051;-77
2022/01/30 05:23:55;;;;;;;14.52;1.80;;;5.80;99.90;;;;;;5055307;28;20021;-77
2022/01/30 05:26:24;;;;;;;14.15;1.33;;;5.90;99.90;;;;;;5054966;28;20017;-77
2022/01/30 05:28:50;;;;;;;19.65;1.77;;;5.90;99.90;;;;;;5055138;28;20436;-77
2022/01/30 05:31:15;;;;;;;12.30;1.05;;;6.00;99.90;;;;;;5037408;28;20111;-76
2022/01/30 05:33:41;;;;;;;19.98;0.80;;;6.00;99.90;;;;;;5055185;28;20137;-76
2022/01/30 05:36:08;;;;;;;10.60;1.00;;;6.00;99.90;;;;;;5055492;28;20389;-76
2022/01/30 05:38:34;;;;;;;12.60;0.47;;;6.00;99.90;;;;;;5055262;28;20148;-76
2022/01/30 05:40:59;;;;;;;15.85;0.80;;;6.00;99.90;;;;;;5055531;28;20024;-77
2022/01/30 05:43:28;;;;;;;14.07;1.40;;;6.00;99.90;;;;;;5055061;28;20033;-77
2022/01/30 05:46:06;;;;;;;15.25;0.88;;;5.90;99.90;;;;;;5054851;28;20447;-77
2022/01/30 05:48:32;;;;;;;10.10;0.43;;;5.90;99.90;;;;;;5054923;28;20025;-77
2022/01/30 05:51:00;;;;;;;14.75;0.60;;;5.80;99.90;;;;;;5037008;28;20141;-77
2022/01/30 05:53:26;;;;;;;11.63;0.30;;;5.80;99.90;;;;;;5054939;28;20078;-77
2022/01/30 05:55:51;;;;;;;10.13;0.55;;;5.70;99.90;;;;;;5036975;28;20437;-76
2022/01/30 05:58:17;;;;;;;9.00;0.57;;;5.70;99.90;;;;;;5054734;28;20021;-76
2022/01/30 06:00:43;;;;;;;10.02;0.30;;;5.60;99.90;;;;;;5036668;28;20029;-76
2022/01/30 06:03:08;;;;;;;13.85;0.40;;;5.60;99.90;;;;;;5054623;28;20360;-76
2022/01/30 06:05:34;;;;;;;18.88;3.10;;;5.50;99.90;;;;;;5054486;28;20103;-76
2022/01/30 06:08:09;;;;;;;11.32;1.73;;;5.50;99.90;;;;;;5054788;28;20025;-77
2022/01/30 06:10:35;;;;;;;15.68;1.13;;;5.50;99.90;;;;;;5054707;28;20025;-78
2022/01/30 06:13:00;;;;;;;11.52;0.70;;;5.40;99.90;;;;;;5054786;28;20150;-78
2022/01/30 06:15:26;;;;;;;23.10;1.63;;;5.30;99.90;;;;;;5037069;28;20504;-78
2022/01/30 06:17:52;;;;;;;14.02;1.27;;;5.30;99.90;;;;;;5036680;28;20035;-78
2022/01/30 06:20:17;;;;;;;13.57;0.77;;;5.30;99.90;;;;;;5055233;28;20072;-78
2022/01/30 06:22:43;;;;;;;27.20;2.10;;;6.60;99.90;;;;;;5036996;28;20025;-78
2022/01/30 06:25:12;;;;;;;8.70;0.63;;;5.20;99.90;;;;;;5036456;28;20040;-77
2022/01/30 06:27:37;;;;;;;7.85;0.50;;;5.10;99.90;;;;;;5036645;28;20032;-77
2022/01/30 06:30:05;;;;;;;14.63;1.33;;;5.10;99.90;;;;;;5054589;28;20032;-77
2022/01/30 06:32:31;;;;;;;14.07;1.97;;;5.10;99.90;;;;;;5036123;28;20075;-76
2022/01/30 06:34:56;;;;;;;16.88;0.85;;;5.10;99.90;;;;;;5036030;28;20029;-76
2022/01/30 06:37:22;;;;;;;20.02;2.00;;;5.00;99.90;;;;;;5053967;28;20025;-76
2022/01/30 06:39:48;;;;;;;9.13;0.17;;;4.90;99.90;;;;;;5054123;28;20036;-77
2022/01/30 06:42:13;;;;;;;15.98;1.13;;;4.90;99.90;;;;;;5053885;28;20025;-77
2022/01/30 06:44:39;;;;;;;14.48;1.02;;;4.90;99.90;;;;;;5054111;28;20017;-78
2022/01/30 06:47:05;;;;;;;14.88;0.70;;;4.80;99.90;;;;;;5054610;28;20017;-78
2022/01/30 06:49:31;;;;;;;14.10;1.92;;;4.80;99.90;;;;;;5053859;28;20021;-76
2022/01/30 06:51:56;;;;;;;14.57;1.33;;;4.70;99.90;;;;;;5035865;28;20075;-76
2022/01/30 06:54:22;;;;;;;16.52;1.92;;;4.70;99.90;;;;;;5036024;28;20059;-76
2022/01/30 06:56:47;;;;;;;19.85;1.20;;;4.70;99.90;;;;;;5053973;28;20022;-76
2022/01/30 06:59:13;;;;;;;10.45;0.75;;;4.80;99.90;;;;;;5053810;28;20031;-77
2022/01/30 07:01:38;;;;;;;17.00;0.82;;;4.80;99.90;;;;;;5053926;28;20055;-77
2022/01/30 07:04:04;;;;;;;8.05;0.60;;;4.80;99.90;;;;;;5035671;28;20083;-78
2022/01/30 07:06:30;;;;;;;22.40;0.82;;;4.70;99.90;;;;;;5053801;28;20013;-77
2022/01/30 07:08:56;;;;;;;19.70;1.40;;;4.70;99.90;;;;;;5053544;28;20064;-78
2022/01/30 07:11:21;;;;;;;16.90;0.85;;;4.60;99.90;;;;;;5054308;28;20055;-78
2022/01/30 07:13:47;;;;;;;15.25;0.95;;;4.50;99.90;;;;;;5053720;28;20409;-78
2022/01/30 07:16:15;;;;;;;24.55;1.40;;;4.50;99.90;;;;;;5035792;28;20024;-78
2022/01/30 07:18:41;;;;;;;21.15;0.90;;;4.50;99.90;;;;;;5054137;28;20100;-78
2022/01/30 07:21:09;;;;;;;11.45;1.58;;;4.40;99.90;;;;;;5053859;28;20068;-78
2022/01/30 07:23:35;;;;;;;11.75;1.13;;;4.40;99.90;;;;;;5053922;28;20024;-78
2022/01/30 07:26:01;;;;;;;20.13;2.28;;;4.40;99.90;;;;;;5053988;28;20493;-79
2022/01/30 07:28:26;;;;;;;19.30;1.52;;;4.40;99.90;;;;;;5035712;28;20021;-78
2022/01/30 07:30:52;;;;;;;17.35;1.20;;;4.40;99.90;;;;;;5054027;28;20514;-77
2022/01/30 07:33:18;;;;;;;18.67;2.22;;;4.50;99.90;;;;;;5035835;28;20084;-78
2022/01/30 07:35:44;;;;;;;18.80;1.83;;;4.60;99.90;;;;;;5053678;28;20103;-78
2022/01/30 07:38:10;;;;;;;18.70;0.98;;;4.70;99.90;;;;;;5053387;28;20025;-78
2022/01/30 07:40:36;;;;;;;16.33;1.10;;;4.70;99.90;;;;;;5053652;28;20021;-78
2022/01/30 07:43:03;;;;;;;10.43;1.00;;;4.70;99.90;;;;;;5035439;28;20021;-78
2022/01/30 07:45:28;;;;;;;20.48;1.08;;;4.80;99.90;;;;;;5035395;28;20028;-78
2022/01/30 07:47:54;;;;;;;26.05;1.33;;;4.80;99.90;;;;;;5035795;28;20387;-78
2022/01/30 07:50:20;;;;;;;32.15;2.90;;;4.70;99.90;;;;;;5054454;28;20360;-78
2022/01/30 07:52:45;;;;;;;23.83;1.55;;;4.60;99.90;;;;;;5039599;28;20024;-79
2022/01/30 07:55:11;;;;;;;24.95;1.48;;;4.70;99.90;;;;;;5057290;28;20035;-78
2022/01/30 07:57:36;;;;;;;24.00;1.98;;;4.70;99.90;;;;;;5039304;28;20521;-78
2022/01/30 08:00:04;;;;;;;17.88;2.22;;;4.70;99.90;;;;;;5057207;28;20024;-76
2022/01/30 08:02:29;;;;;;;20.77;1.50;;;4.80;99.90;;;;;;5056967;28;20022;-76
2022/01/30 08:04:55;;;;;;;20.83;1.88;;;4.80;99.90;;;;;;5038631;28;20492;-76
2022/01/30 08:07:21;;;;;;;12.60;0.60;;;4.80;99.90;;;;;;5038961;28;20028;-76
2022/01/30 08:09:47;;;;;;;21.05;1.17;;;4.80;99.90;;;;;;5039073;28;20028;-78
2022/01/30 08:12:12;;;;;;;25.65;2.38;;;4.80;99.90;;;;;;5040199;28;20508;-78
2022/01/30 08:14:38;;;;;;;16.45;1.85;;;4.80;99.90;;;;;;5040382;28;20017;-78
2022/01/30 08:17:04;;;;;;;19.95;1.05;;;4.80;99.90;;;;;;5039842;28;20020;-77
2022/01/30 08:19:29;;;;;;;10.65;0.50;;;4.90;99.90;;;;;;5058216;28;20028;-79
2022/01/30 08:21:57;;;;;;;25.20;1.65;;;4.90;99.90;;;;;;5057177;28;20025;-78
2022/01/30 08:24:24;;;;;;;20.38;1.60;;;4.90;99.90;;;;;;5056583;28;20362;-78
2022/01/30 08:26:50;;;;;;;15.15;1.33;;;4.90;99.90;;;;;;5056315;28;20044;-78
2022/01/30 08:29:16;;;;;;;18.10;0.52;;;5.00;99.90;;;;;;5038339;28;20044;-77
2022/01/30 08:31:42;;;;;;;25.35;2.30;;;5.10;99.90;;;;;;5059036;28;20029;-78
2022/01/30 08:34:07;;;;;;;24.77;1.98;;;5.10;99.90;;;;;;5057437;28;20025;-77
2022/01/30 08:36:33;;;;;;;19.83;1.90;;;5.70;99.90;;;;;;5038944;28;20063;-78
2022/01/30 08:38:59;;;;;;;17.00;1.33;;;5.30;99.90;;;;;;5056504;28;20032;-78
2022/01/30 08:41:24;;;;;;;18.77;2.38;;;5.40;99.90;;;;;;5056405;28;20024;-76
2022/01/30 08:43:50;;;;;;;19.83;0.95;;;5.40;99.90;;;;;;5055596;28;20029;-76
2022/01/30 08:46:16;;;;;;;15.45;1.70;;;5.50;99.90;;;;;;5037920;28;20021;-76
2022/01/30 08:48:41;;;;;;;21.30;0.88;;;5.60;99.90;;;;;;5056192;28;20035;-76
2022/01/30 08:51:09;;;;;;;19.98;1.80;;;5.70;99.90;;;;;;5037693;28;20056;-76
2022/01/30 08:53:35;;;;;;;18.65;1.92;;;5.80;99.90;;;;;;5055585;28;20025;-74
2022/01/30 08:56:00;;;;;;;15.27;1.83;;;5.90;99.90;;;;;;5055482;28;20025;-73
2022/01/30 08:58:26;;;;;;;16.20;1.20;;;6.00;99.90;;;;;;5055326;28;20018;-73
2022/01/30 09:00:52;;;;;;;28.52;1.52;;;6.10;99.90;;;;;;5055046;28;20534;-73
2022/01/30 09:03:17;;;;;;;19.00;1.63;;;6.10;99.90;;;;;;5037514;28;20021;-73
2022/01/30 09:05:43;;;;;;;17.63;2.20;;;6.20;99.90;;;;;;5054915;28;20390;-74
2022/01/30 09:08:09;;;;;;;14.65;0.50;;;6.30;99.90;;;;;;5055224;28;20025;-74
2022/01/30 09:10:37;;;;;;;17.65;1.55;;;6.40;99.90;;;;;;5055366;28;20025;-73
2022/01/30 09:13:04;;;;;;;21.27;1.67;;;6.50;99.90;;;;;;5055514;28;20435;-73
2022/01/30 09:15:30;;;;;;;10.23;1.35;;;6.50;99.90;;;;;;5055094;28;20271;-76
2022/01/30 09:17:58;;;;;;;16.38;2.15;;;6.50;99.90;;;;;;5037015;28;20383;-72
2022/01/30 09:20:24;;;;;;;16.50;0.82;;;6.50;99.90;;;;;;5054902;28;20049;-72
2022/01/30 09:22:51;;;;;;;22.50;2.78;;;6.60;99.90;;;;;;5055001;28;20021;-72
2022/01/30 09:25:17;;;;;;;17.45;1.48;;;6.70;99.90;;;;;;5055043;28;20024;-73
2022/01/30 09:27:43;;;;;;;22.55;2.67;;;6.80;99.90;;;;;;5054870;28;20037;-73
2022/01/30 09:30:10;;;;;;;12.57;1.02;;;6.90;99.90;;;;;;5054960;28;20021;-73
2022/01/30 09:32:36;;;;;;;21.77;1.48;;;6.90;99.90;;;;;;5055135;28;20032;-74
2022/01/30 09:35:02;;;;;;;15.27;0.88;;;7.00;99.90;;;;;;5036579;28;20021;-75
2022/01/30 09:37:28;;;;;;;23.10;1.90;;;7.00;99.90;;;;;;5036748;28;20120;-74
2022/01/30 09:39:53;;;;;;;21.33;1.40;;;7.10;99.90;;;;;;5054764;28;20100;-71
2022/01/30 09:42:24;;;;;;;19.58;1.48;;;7.10;99.90;;;;;;5054681;28;20037;-78
2022/01/30 09:44:50;;;;;;;18.73;1.15;;;7.20;99.90;;;;;;5055690;28;20378;-77
2022/01/30 09:47:18;;;;;;;20.13;1.10;;;7.30;99.90;;;;;;5037814;28;20017;-78
2022/01/30 09:49:51;;;;;;;12.23;0.93;;;7.40;99.90;;;;;;5054608;28;20406;-78
2022/01/30 09:52:19;;;;;;;22.58;1.85;;;7.40;99.90;;;;;;5054501;28;20486;-77
2022/01/30 09:54:45;;;;;;;23.48;1.42;;;7.40;99.90;;;;;;5054517;28;20029;-78
2022/01/30 09:57:11;;;;;;;21.75;0.73;;;7.60;99.90;;;;;;5036402;28;20040;-78
2022/01/30 09:59:36;;;;;;;14.57;0.85;;;7.70;99.90;;;;;;5054613;28;20025;-78
2022/01/30 10:02:06;;;;;;;18.52;1.80;;;7.90;99.90;;;;;;5054489;28;20028;-78
2022/01/30 10:04:33;;;;;;;6.13;0.52;;;8.10;99.90;;;;;;5056098;28;20531;-79
2022/01/30 10:07:09;;;;;;;22.70;2.13;;;8.20;99.90;;;;;;5055232;28;20378;-79
2022/01/30 10:09:37;;;;;;;14.48;2.28;;;8.20;99.90;;;;;;5037066;28;20044;-79
2022/01/30 10:12:13;;;;;;;22.77;0.90;;;8.30;99.90;;;;;;5054078;28;20100;-78
2022/01/30 10:14:58;;;;;;;17.40;0.38;;;8.40;99.90;;;;;;5053504;28;20032;-77
2022/01/30 10:17:26;;;;;;;28.85;1.25;;;8.30;99.90;;;;;;5054733;28;20034;-76
2022/01/30 10:20:11;;;;;;;12.93;1.08;;;8.30;99.90;;;;;;5037092;28;20017;-75
2022/01/30 10:22:47;;;;;;;20.02;1.27;;;8.30;99.90;;;;;;5054958;28;20032;-75
2022/01/30 10:25:36;;;;;;;12.15;0.93;;;8.20;99.90;;;;;;5054072;28;20040;-77
2022/01/30 10:28:11;;;;;;;18.65;1.95;;;8.20;99.90;;;;;;5053972;28;20033;-77
2022/01/30 10:31:00;;;;;;;22.40;2.17;;;8.20;99.90;;;;;;5054275;28;20036;-77
2022/01/30 10:33:42;;;;;;;16.80;1.48;;;8.20;99.90;;;;;;5026359;28;20037;-77
2022/01/30 10:36:09;;;;;;;23.52;1.58;;;8.20;99.90;;;;;;5035722;28;20025;-77
2022/01/30 10:38:41;;;;;;;23.65;2.50;;;8.30;99.90;;;;;;5053629;28;20025;-77
2022/01/30 10:41:31;;;;;;;24.50;2.67;;;8.40;99.90;;;;;;5053422;28;20474;-78
2022/01/30 10:44:07;;;;;;;29.80;0.93;;;8.50;99.90;;;;;;5053586;28;20056;-76
2022/01/30 10:46:44;;;;;;;22.65;1.42;;;8.70;99.90;;;;;;5053744;28;20363;-76
2022/01/30 10:49:12;;;;;;;12.40;1.02;;;8.90;99.90;;;;;;5053981;28;20083;-77
2022/01/30 10:51:38;;;;;;;23.05;2.35;;;9.10;99.90;;;;;;5053288;28;20367;-77
2022/01/30 10:54:10;;;;;;;25.65;0.90;;;9.10;99.90;;;;;;5053256;28;20098;-76
2022/01/30 10:56:37;;;;;;;19.52;0.95;;;9.10;99.90;;;;;;5053297;28;20041;-75
2022/01/30 10:59:22;;;;;;;20.85;1.58;;;9.10;99.90;;;;;;5035461;28;20390;-77
2022/01/30 11:01:50;;;;;;;19.25;1.80;;;9.00;99.90;;;;;;5053462;28;20060;-73
2022/01/30 11:04:26;;;;;;;17.60;2.00;;;8.90;99.00;;;;;;5053312;28;20494;-77
2022/01/30 11:06:58;;;;;;;26.65;2.70;;;8.70;99.90;;;;;;5053766;28;20025;-77
2022/01/30 11:09:37;;;;;;;20.13;2.30;;;8.50;99.90;;;;;;5035180;28;20029;-77
2022/01/30 11:12:32;;;;;;;20.15;1.40;;;8.30;99.90;;;;;;5053128;28;20116;-76
2022/01/30 11:17:18;;;;;;;18.95;2.08;;;8.00;99.90;;;;;;5053840;28;20406;-77
2022/01/30 11:19:48;;;;;;;30.30;2.00;;;7.90;99.90;;;;;;5035229;28;20017;-77
2022/01/30 11:22:16;;;;;;;21.35;1.77;;;8.00;99.90;;;;;;5035572;28;20028;-76
2022/01/30 11:24:47;;;;;;;12.63;1.98;;;8.20;99.90;;;;;;5053810;28;20124;-77
2022/01/30 11:27:18;;;;;;;12.05;0.85;;;8.30;99.90;;;;;;5039894;28;20513;-76
2022/01/30 11:29:45;;;;;;;17.63;1.63;;;8.50;99.90;;;;;;5039991;28;20049;-76
2022/01/30 11:32:12;;;;;;;16.95;2.20;;;10.70;99.90;;;;;;5040269;28;20017;-75
2022/01/30 11:34:39;;;;;;;17.73;1.45;;;8.90;99.90;;;;;;5057938;28;20025;-76
2022/01/30 11:37:07;;;;;;;16.25;1.63;;;9.00;99.10;;;;;;5040215;28;20029;-77
2022/01/30 11:39:34;;;;;;;16.30;1.33;;;9.00;96.90;;;;;;5058178;28;20525;-76
2022/01/30 11:42:19;;;;;;;19.27;1.45;;;8.90;94.80;;;;;;5058163;28;20021;-76
2022/01/30 11:44:48;;;;;;;15.18;1.75;;;8.70;95.40;;;;;;5039433;28;20040;-74
2022/01/30 11:47:13;;;;;;;20.58;1.10;;;8.60;94.80;;;;;;5039887;28;20119;-77
2022/01/30 11:49:50;;;;;;;13.75;1.55;;;8.60;95.00;;;;;;5057517;28;20052;-76
2022/01/30 11:52:17;;;;;;;17.77;1.45;;;8.60;94.90;;;;;;5039870;28;20032;-77
2022/01/30 11:54:48;;;;;;;17.08;1.58;;;8.70;94.30;;;;;;5058045;28;20071;-77
2022/01/30 11:57:22;;;;;;;25.95;1.58;;;8.90;94.20;;;;;;5057829;28;20101;-77
2022/01/30 11:59:49;;;;;;;17.75;1.75;;;9.00;92.10;;;;;;5039204;28;20029;-77
2022/01/30 12:02:30;;;;;;;15.40;3.00;;;9.20;90.70;;;;;;5057393;28;20371;-77
2022/01/30 12:05:07;;;;;;;18.77;1.40;;;9.40;86.60;;;;;;5039491;28;20115;-77
2022/01/30 12:07:41;;;;;;;15.60;1.63;;;9.60;90.30;;;;;;5057506;28;20035;-77
2022/01/30 12:10:15;;;;;;;21.05;1.75;;;9.60;87.10;;;;;;5038768;28;20033;-78
2022/01/30 12:12:49;;;;;;;17.58;1.83;;;9.40;89.00;;;;;;5039021;28;20029;-78
2022/01/30 12:15:33;;;;;;;17.88;0.90;;;9.10;89.80;;;;;;5039551;28;20032;-77
2022/01/30 12:18:00;;;;;;;14.15;1.42;;;8.80;92.50;;;;;;5057130;28;20032;-78
2022/01/30 12:20:28;;;;;;;19.58;1.70;;;8.70;93.50;;;;;;5039381;28;20013;-78
2022/01/30 12:22:55;;;;;;;14.13;1.05;;;8.90;92.90;;;;;;5039413;28;20108;-79
2022/01/30 12:25:28;;;;;;;17.98;1.35;;;9.00;91.50;;;;;;5039442;28;20083;-77
2022/01/30 12:27:55;;;;;;;18.38;1.33;;;9.30;91.30;;;;;;5040062;28;20041;-78
2022/01/30 12:30:38;;;;;;;14.45;1.35;;;9.60;88.50;;;;;;5057150;28;20079;-78
2022/01/30 12:33:30;;;;;;;11.18;0.77;;;10.00;86.90;;;;;;5039478;28;20028;-79
2022/01/30 12:35:56;;;;;;;15.90;1.20;;;10.30;77.20;;;;;;5057393;28;20047;-79
2022/01/30 12:38:33;;;;;;;18.70;2.50;;;10.50;79.60;;;;;;5038883;28;20024;-79
2022/01/30 12:40:58;;;;;;;18.40;1.90;;;10.40;74.10;;;;;;5057163;28;20378;-78
2022/01/30 12:43:30;;;;;;;15.45;2.05;;;10.10;78.00;;;;;;5038756;28;20112;-78
2022/01/30 12:46:09;;;;;;;14.60;1.15;;;10.00;78.10;;;;;;5038695;28;20020;-78
2022/01/30 12:48:35;;;;;;;24.20;1.42;;;9.90;80.10;;;;;;5039433;28;20035;-77
2022/01/30 12:51:06;;;;;;;16.60;1.15;;;9.70;81.40;;;;;;5056433;28;20025;-78
2022/01/30 12:53:35;;;;;;;18.77;2.35;;;9.50;84.60;;;;;;5038973;28;20056;-79
2022/01/30 12:56:00;;;;;;;20.33;1.50;;;9.30;86.60;;;;;;5038384;28;20371;-78
2022/01/30 12:58:33;;;;;;;21.35;1.83;;;9.20;87.80;;;;;;5057777;28;20150;-80
2022/01/30 13:01:14;;;;;;;19.58;1.25;;;9.10;89.70;;;;;;5040374;28;20021;-80
2022/01/30 13:03:40;;;;;;;23.10;3.03;;;9.20;91.50;;;;;;5041366;28;20029;-80
2022/01/30 13:06:06;;;;;;;23.13;1.17;;;9.20;91.30;;;;;;5675928;22;20043;-80
2022/01/30 13:08:52;;;;;;;24.45;1.65;;;9.30;90.70;;;;;;5059054;28;20029;-80
2022/01/30 13:11:24;;;;;;;22.40;2.15;;;9.30;88.30;;;;;;5056183;28;20501;-79
2022/01/30 13:14:05;;;;;;;23.17;3.05;;;9.10;89.50;;;;;;5056390;28;20025;-79
2022/01/30 13:16:35;;;;;;;19.88;1.27;;;8.90;90.20;;;;;;5055440;28;20029;-77
2022/01/30 13:19:06;;;;;;;21.15;1.95;;;8.80;92.30;;;;;;5058483;28;20021;-81
2022/01/30 13:21:33;;;;;;;18.33;1.30;;;8.60;93.00;;;;;;5057204;28;20044;-79
2022/01/30 13:24:00;;;;;;;15.35;2.10;;;8.50;93.40;;;;;;5057958;28;20025;-80
2022/01/30 13:26:42;;;;;;;17.85;1.88;;;8.70;93.80;;;;;;5056722;28;20477;-80
2022/01/30 13:29:20;;;;;;;9.90;1.08;;;8.90;93.90;;;;;;5058893;28;20036;-80
2022/01/30 13:31:51;;;;;;;17.63;0.88;;;9.10;90.80;;;;;;5057403;28;20036;-77
2022/01/30 13:34:19;;;;;;;20.30;2.80;;;9.30;89.10;;;;;;5055431;28;20078;-79
2022/01/30 13:36:53;;;;;;;22.73;2.10;;;9.40;87.80;;;;;;5055432;28;20020;-79
2022/01/30 13:39:29;;;;;;;16.10;0.82;;;9.40;87.20;;;;;;5053957;28;20025;-79
2022/01/30 13:42:05;;;;;;;23.95;1.52;;;9.20;86.70;;;;;;5055090;28;20025;-79
2022/01/30 13:44:51;;;;;;;17.33;2.03;;;9.00;88.20;;;;;;5054959;28;20041;-78
2022/01/30 13:47:21;;;;;;;22.65;1.05;;;8.90;89.00;;;;;;5053166;28;20078;-79
2022/01/30 13:49:49;;;;;;;17.98;2.03;;;8.80;88.90;;;;;;5052904;28;20021;-79
2022/01/30 13:52:19;;;;;;;18.52;0.95;;;8.80;89.40;;;;;;5054544;28;20017;-78
2022/01/30 13:55:00;;;;;;;22.70;1.88;;;8.80;90.30;;;;;;5053235;28;20025;-78
2022/01/30 13:57:35;;;;;;;22.38;1.55;;;9.00;91.20;;;;;;5059368;28;20029;-82